Time;durP1;ratioP1;P1;durP2;ratioP2;P2;SDS_P1;SDS_P2;PMS_P1;PMS_P2;Temp;Humidity;BMP_temperature;BMP_pressure;BME280_temperature;BME280_humidity;BME280_pressure;Samples;Min_cycle;Max_cycle;Signal;HPM_P1;HPM_P2
2023/09/04 00:00:35;;;;;;;5.67;5.13;;;22.00;99.90;;;;;;4982355;28;20664;-74
2023/09/04 00:03:01;;;;;;;6.60;5.47;;;22.00;99.90;;;;;;4976935;28;20544;-74
2023/09/04 00:05:26;;;;;;;5.50;5.00;;;22.00;99.90;;;;;;4985714;28;20508;-74
2023/09/04 00:07:52;;;;;;;5.87;5.00;;;22.00;99.90;;;;;;4981829;28;20201;-74
2023/09/04 00:10:17;;;;;;;5.40;4.90;;;21.90;99.90;;;;;;4980444;28;20213;-74
2023/09/04 00:12:43;;;;;;;8.10;5.17;;;21.90;99.90;;;;;;4985955;28;20186;-74
2023/09/04 00:15:08;;;;;;;7.60;5.57;;;21.90;99.90;;;;;;4987701;28;20182;-74
2023/09/04 00:17:34;;;;;;;5.57;4.97;;;21.90;99.90;;;;;;4984604;28;20301;-73
2023/09/04 00:20:00;;;;;;;6.30;5.70;;;21.80;99.90;;;;;;4982072;28;20193;-73
2023/09/04 00:22:27;;;;;;;5.40;4.90;;;21.80;99.90;;;;;;4982796;28;20197;-74
2023/09/04 00:24:53;;;;;;;5.67;5.17;;;21.80;99.90;;;;;;4984659;28;20585;-73
2023/09/04 00:27:19;;;;;;;7.97;6.43;;;21.80;99.90;;;;;;4983651;28;20878;-74
2023/09/04 00:29:45;;;;;;;6.00;5.40;;;21.80;99.90;;;;;;4987592;28;20452;-74
2023/09/04 00:32:11;;;;;;;7.93;5.40;;;21.80;99.90;;;;;;4985388;28;20502;-74
2023/09/04 00:34:37;;;;;;;5.50;5.00;;;21.80;99.90;;;;;;4983776;28;20190;-74
2023/09/04 00:37:03;;;;;;;5.43;4.90;;;21.70;99.90;;;;;;4986272;28;20569;-74
2023/09/04 00:39:29;;;;;;;5.43;4.93;;;21.70;99.90;;;;;;4988473;28;20832;-74
2023/09/04 00:41:54;;;;;;;5.50;5.00;;;21.70;99.90;;;;;;4985574;28;20521;-73
2023/09/04 00:44:20;;;;;;;5.53;5.00;;;21.70;99.90;;;;;;4985134;28;20222;-74
2023/09/04 00:46:46;;;;;;;6.13;4.77;;;21.70;99.90;;;;;;4984058;28;20202;-73
2023/09/04 00:49:12;;;;;;;5.37;4.77;;;21.70;99.90;;;;;;4987520;28;20205;-74
2023/09/04 00:51:39;;;;;;;6.93;5.47;;;21.70;99.90;;;;;;4987278;28;20186;-74
2023/09/04 00:54:07;;;;;;;10.43;4.63;;;21.60;99.90;;;;;;4986119;28;20623;-74
2023/09/04 00:56:33;;;;;;;6.83;5.30;;;21.60;99.90;;;;;;4987373;28;20963;-74
2023/09/04 00:58:58;;;;;;;6.67;4.60;;;21.60;99.90;;;;;;4987675;28;20725;-74
2023/09/04 01:01:25;;;;;;;5.47;4.80;;;21.60;99.90;;;;;;4983091;28;20468;-73
2023/09/04 01:03:51;;;;;;;6.23;4.77;;;21.60;99.90;;;;;;4985286;28;20189;-74
2023/09/04 01:06:16;;;;;;;5.43;4.80;;;21.50;99.90;;;;;;4984598;28;20620;-74
2023/09/04 01:08:42;;;;;;;5.03;4.53;;;21.50;99.90;;;;;;4982554;28;20214;-74
2023/09/04 01:11:13;;;;;;;5.20;4.70;;;21.50;99.90;;;;;;4983110;28;20257;-74
2023/09/04 01:13:54;;;;;;;5.40;4.90;;;21.50;99.90;;;;;;4981582;28;20217;-74
2023/09/04 01:16:22;;;;;;;5.73;5.23;;;21.40;99.90;;;;;;4984133;28;20421;-74
2023/09/04 01:18:48;;;;;;;5.90;5.30;;;21.40;99.90;;;;;;4985563;28;20440;-74
2023/09/04 01:21:14;;;;;;;5.90;5.30;;;21.40;99.90;;;;;;4985199;28;20848;-73
2023/09/04 01:23:39;;;;;;;5.27;4.77;;;21.40;99.90;;;;;;4986848;28;20464;-73
2023/09/04 01:26:20;;;;;;;5.23;4.73;;;21.40;99.90;;;;;;4981108;28;20621;-73
2023/09/04 01:29:04;;;;;;;5.60;5.00;;;21.40;99.90;;;;;;4984154;28;20675;-73
2023/09/04 01:31:35;;;;;;;5.67;4.60;;;21.30;99.90;;;;;;4986459;28;21345;-73
2023/09/04 01:34:10;;;;;;;5.43;4.93;;;21.30;99.90;;;;;;4983390;28;20555;-73
2023/09/04 01:36:36;;;;;;;5.13;4.63;;;21.30;99.90;;;;;;4985886;28;20413;-74
2023/09/04 01:39:03;;;;;;;5.90;5.30;;;21.30;99.90;;;;;;4984319;28;20469;-73
2023/09/04 01:41:29;;;;;;;5.37;4.83;;;21.30;99.90;;;;;;4986852;28;20425;-74
2023/09/04 01:43:54;;;;;;;6.10;4.53;;;21.20;99.90;;;;;;4990441;28;20949;-74
2023/09/04 01:46:21;;;;;;;5.60;4.77;;;21.20;99.90;;;;;;4989488;28;20182;-73
2023/09/04 01:48:48;;;;;;;6.77;4.93;;;21.10;99.90;;;;;;4996648;28;20206;-73
2023/09/04 01:51:14;;;;;;;6.57;5.20;;;21.10;99.90;;;;;;4994646;28;20483;-73
2023/09/04 01:53:41;;;;;;;5.90;4.93;;;21.00;99.90;;;;;;5008933;28;20409;-73
2023/09/04 01:56:06;;;;;;;5.47;4.60;;;21.00;99.90;;;;;;5008181;28;20461;-75
2023/09/04 01:58:32;;;;;;;5.17;4.50;;;21.00;99.90;;;;;;5005586;28;20878;-74
2023/09/04 02:00:57;;;;;;;8.10;4.90;;;21.00;99.90;;;;;;5005083;28;20448;-75
2023/09/04 02:03:23;;;;;;;6.00;5.40;;;20.90;99.90;;;;;;5009389;28;20216;-75
2023/09/04 02:05:49;;;;;;;5.20;4.70;;;20.90;99.90;;;;;;5002134;28;20209;-75
2023/09/04 02:08:14;;;;;;;5.50;5.00;;;20.90;99.90;;;;;;5001356;28;20216;-75
2023/09/04 02:10:40;;;;;;;5.10;4.60;;;20.90;99.90;;;;;;4996482;28;20205;-74
2023/09/04 02:13:06;;;;;;;5.40;4.90;;;20.90;99.90;;;;;;4994210;28;20208;-72
2023/09/04 02:15:32;;;;;;;6.60;5.23;;;20.80;99.90;;;;;;4982540;28;20182;-72
2023/09/04 02:18:02;;;;;;;5.47;4.97;;;20.80;99.90;;;;;;4986904;28;20274;-73
2023/09/04 02:20:28;;;;;;;5.90;5.30;;;20.80;99.90;;;;;;4985512;28;20453;-74
2023/09/04 02:22:53;;;;;;;5.17;4.67;;;20.80;99.90;;;;;;4985751;28;20820;-73
2023/09/04 02:25:19;;;;;;;5.50;5.00;;;20.80;99.90;;;;;;4985273;28;20421;-73
2023/09/04 02:27:44;;;;;;;6.10;5.30;;;20.70;99.90;;;;;;4982190;28;20204;-73
2023/09/04 02:30:10;;;;;;;5.73;5.13;;;20.70;99.90;;;;;;4980365;28;20212;-73
2023/09/04 02:32:36;;;;;;;5.57;5.03;;;20.70;99.90;;;;;;4982981;28;20189;-73
2023/09/04 02:35:01;;;;;;;4.97;4.47;;;20.60;99.90;;;;;;4985094;28;20174;-73
2023/09/04 02:37:27;;;;;;;5.77;5.23;;;20.70;99.90;;;;;;4982306;28;20549;-73
2023/09/04 02:39:53;;;;;;;7.40;5.50;;;20.60;99.90;;;;;;4981578;28;20569;-74
2023/09/04 02:42:18;;;;;;;6.23;5.10;;;20.60;99.90;;;;;;4986112;28;20178;-73
2023/09/04 02:44:44;;;;;;;9.97;5.00;;;20.60;99.90;;;;;;4985686;28;20178;-73
2023/09/04 02:47:10;;;;;;;5.13;4.60;;;20.60;99.90;;;;;;4982027;28;20672;-73
2023/09/04 02:49:35;;;;;;;6.40;5.60;;;20.60;99.90;;;;;;4981928;28;20587;-73
2023/09/04 02:52:01;;;;;;;5.40;4.90;;;20.50;99.90;;;;;;4988884;28;20440;-73
2023/09/04 02:54:27;;;;;;;7.20;5.10;;;20.50;99.90;;;;;;4988967;28;20591;-73
2023/09/04 02:56:52;;;;;;;5.47;4.97;;;20.50;99.90;;;;;;4986523;28;20187;-73
2023/09/04 02:59:18;;;;;;;5.50;4.67;;;20.50;99.90;;;;;;4977639;28;20210;-73
2023/09/04 03:01:43;;;;;;;6.07;5.10;;;20.50;99.90;;;;;;4978694;28;20175;-73
2023/09/04 03:04:09;;;;;;;5.70;5.10;;;20.40;99.90;;;;;;4982504;28;20181;-73
2023/09/04 03:06:34;;;;;;;4.80;4.30;;;20.40;99.90;;;;;;4980571;28;20253;-74
2023/09/04 03:09:00;;;;;;;5.57;4.87;;;20.40;99.90;;;;;;4979306;28;20674;-74
2023/09/04 03:11:25;;;;;;;7.60;5.20;;;20.40;99.90;;;;;;4984801;28;20209;-74
2023/09/04 03:13:51;;;;;;;5.70;5.10;;;20.40;99.90;;;;;;4979180;28;20174;-73
2023/09/04 03:16:17;;;;;;;6.30;5.33;;;20.30;99.90;;;;;;4983340;28;20734;-74
2023/09/04 03:18:42;;;;;;;5.80;5.30;;;20.30;99.90;;;;;;4981024;28;20533;-74
2023/09/04 03:21:08;;;;;;;7.13;5.07;;;20.30;99.90;;;;;;4981705;28;20216;-73
2023/09/04 03:23:34;;;;;;;9.53;5.33;;;20.20;99.90;;;;;;4987470;28;20178;-73
2023/09/04 03:26:00;;;;;;;8.97;5.20;;;20.20;99.90;;;;;;4981468;28;20211;-73
2023/09/04 03:28:25;;;;;;;6.10;5.37;;;20.10;99.90;;;;;;4983110;28;20635;-73
2023/09/04 03:30:51;;;;;;;8.33;5.33;;;20.10;99.90;;;;;;4977537;28;20556;-74
2023/09/04 03:33:17;;;;;;;6.87;5.63;;;20.10;99.90;;;;;;4986697;28;20182;-74
2023/09/04 03:35:42;;;;;;;5.97;4.90;;;20.10;99.90;;;;;;4988643;28;20185;-74
2023/09/04 03:38:08;;;;;;;5.87;5.00;;;20.10;99.90;;;;;;4983581;28;20217;-73
2023/09/04 03:40:34;;;;;;;5.70;5.10;;;20.10;99.90;;;;;;4980852;28;20205;-74
2023/09/04 03:42:59;;;;;;;8.03;4.93;;;20.10;99.90;;;;;;4981746;28;20734;-74
2023/09/04 03:45:30;;;;;;;7.00;5.43;;;20.10;99.90;;;;;;4984109;28;20265;-74
2023/09/04 03:47:56;;;;;;;5.60;5.00;;;20.10;99.90;;;;;;4989769;28;20221;-74
2023/09/04 03:50:22;;;;;;;6.03;5.33;;;20.00;99.90;;;;;;4984750;28;20465;-73
2023/09/04 03:52:47;;;;;;;5.10;4.60;;;20.00;99.90;;;;;;4983941;28;20609;-74
2023/09/04 03:55:13;;;;;;;6.07;5.23;;;20.00;99.90;;;;;;4985113;28;20178;-74
2023/09/04 03:57:48;;;;;;;6.87;5.40;;;20.00;99.90;;;;;;4977825;28;20210;-74
2023/09/04 04:00:16;;;;;;;6.20;5.10;;;19.90;99.90;;;;;;4988002;28;20231;-73
2023/09/04 04:02:43;;;;;;;5.83;4.83;;;19.90;99.90;;;;;;4980327;28;20743;-73
2023/09/04 04:05:13;;;;;;;8.23;5.07;;;19.90;99.90;;;;;;4987461;28;20488;-75
2023/09/04 04:07:39;;;;;;;5.60;4.80;;;19.80;99.90;;;;;;4986393;28;20946;-74
2023/09/04 04:10:05;;;;;;;7.27;5.30;;;19.80;99.90;;;;;;4986394;28;20515;-74
2023/09/04 04:12:31;;;;;;;6.00;5.00;;;19.80;99.90;;;;;;4981199;28;20196;-74
2023/09/04 04:15:04;;;;;;;4.97;4.47;;;19.80;99.90;;;;;;4990240;28;20516;-74
2023/09/04 04:17:30;;;;;;;5.87;5.20;;;19.80;99.90;;;;;;4982780;28;20441;-73
2023/09/04 04:19:56;;;;;;;8.30;5.30;;;19.80;99.90;;;;;;4986928;28;20443;-74
2023/09/04 04:22:23;;;;;;;8.77;5.90;;;19.70;99.90;;;;;;4983307;28;20194;-73
2023/09/04 04:24:49;;;;;;;7.77;6.27;;;19.70;99.90;;;;;;4986002;28;20427;-73
2023/09/04 04:27:16;;;;;;;5.30;4.80;;;19.70;99.90;;;;;;4987526;28;20412;-73
2023/09/04 04:29:45;;;;;;;6.13;5.53;;;19.70;99.90;;;;;;4980510;28;20669;-73
2023/09/04 04:32:11;;;;;;;7.13;5.50;;;19.70;99.90;;;;;;4990077;28;20448;-73
2023/09/04 04:34:37;;;;;;;5.87;5.27;;;19.70;99.90;;;;;;4990330;28;20416;-73
2023/09/04 04:37:05;;;;;;;6.20;5.27;;;19.70;99.90;;;;;;4986623;28;20189;-73
2023/09/04 04:39:31;;;;;;;6.13;5.43;;;19.70;99.90;;;;;;4984631;28;20214;-74
2023/09/04 04:41:56;;;;;;;5.90;5.30;;;19.60;99.90;;;;;;4987845;28;20434;-74
2023/09/04 04:44:22;;;;;;;5.53;5.03;;;19.60;99.90;;;;;;4987275;28;20189;-74
2023/09/04 04:46:48;;;;;;;5.43;4.73;;;19.60;99.90;;;;;;4982172;28;20643;-74
2023/09/04 04:49:20;;;;;;;9.70;5.50;;;19.60;99.90;;;;;;4991022;28;20566;-74
2023/09/04 04:51:46;;;;;;;6.23;5.50;;;19.50;99.90;;;;;;4987943;28;20182;-74
2023/09/04 04:54:11;;;;;;;6.23;4.97;;;19.50;99.90;;;;;;4982885;28;20800;-73
2023/09/04 04:56:37;;;;;;;6.07;5.47;;;19.50;99.90;;;;;;4983435;28;20640;-73
2023/09/04 04:59:03;;;;;;;6.73;4.83;;;19.50;99.90;;;;;;4985870;28;20205;-73
2023/09/04 05:01:28;;;;;;;6.03;5.47;;;19.50;99.90;;;;;;4982401;28;20293;-73
2023/09/04 05:03:54;;;;;;;6.23;5.50;;;19.50;99.90;;;;;;4984383;28;20241;-73
2023/09/04 05:06:22;;;;;;;6.47;5.73;;;19.50;99.90;;;;;;4981064;28;20194;-73
2023/09/04 05:08:48;;;;;;;6.77;5.40;;;19.50;99.90;;;;;;4984657;28;20299;-73
2023/09/04 05:11:13;;;;;;;5.73;4.53;;;19.50;99.90;;;;;;4985915;28;20558;-73
2023/09/04 05:13:39;;;;;;;6.53;5.20;;;19.40;99.90;;;;;;4985060;28;20190;-73
2023/09/04 05:16:05;;;;;;;6.17;5.27;;;19.40;99.90;;;;;;4984936;28;20577;-73
2023/09/04 05:18:31;;;;;;;7.90;6.67;;;19.40;99.90;;;;;;4981425;28;20199;-73
2023/09/04 05:20:57;;;;;;;8.07;5.40;;;19.40;99.90;;;;;;4977619;28;20190;-73
2023/09/04 05:23:22;;;;;;;5.67;5.17;;;19.40;99.90;;;;;;4984439;28;20513;-73
2023/09/04 05:25:49;;;;;;;8.83;5.50;;;19.40;99.90;;;;;;4984391;28;20182;-73
2023/09/04 05:28:15;;;;;;;5.70;5.10;;;19.40;99.90;;;;;;4990132;28;20264;-74
2023/09/04 05:30:40;;;;;;;6.50;5.80;;;19.40;99.90;;;;;;4984910;28;20469;-73
2023/09/04 05:33:06;;;;;;;9.07;5.53;;;19.40;99.90;;;;;;4978486;28;20261;-73
2023/09/04 05:35:31;;;;;;;6.50;5.53;;;19.40;99.90;;;;;;4988155;28;20240;-73
2023/09/04 05:37:58;;;;;;;6.13;5.20;;;19.40;99.90;;;;;;4982386;28;20246;-73
2023/09/04 05:40:27;;;;;;;6.43;5.60;;;19.40;99.90;;;;;;4985308;28;20248;-73
2023/09/04 05:42:52;;;;;;;6.00;5.40;;;19.40;99.90;;;;;;4980790;28;20524;-73
2023/09/04 05:45:19;;;;;;;5.27;4.77;;;19.40;99.90;;;;;;4982046;28;20987;-74
2023/09/04 05:47:48;;;;;;;7.30;5.50;;;19.40;99.90;;;;;;4985782;28;20220;-73
2023/09/04 05:50:13;;;;;;;5.60;5.00;;;19.40;99.90;;;;;;4979368;28;20476;-73
2023/09/04 05:52:39;;;;;;;9.20;5.27;;;19.40;99.90;;;;;;4979118;28;20926;-73
2023/09/04 05:55:06;;;;;;;5.53;4.90;;;19.40;99.90;;;;;;4982189;28;20181;-73
2023/09/04 05:57:32;;;;;;;5.53;5.03;;;19.40;99.90;;;;;;4984901;28;20285;-74
2023/09/04 05:59:57;;;;;;;7.67;5.57;;;19.40;99.90;;;;;;4981001;28;20524;-74
2023/09/04 06:02:23;;;;;;;6.10;5.10;;;19.40;99.90;;;;;;4983632;28;20201;-74
2023/09/04 06:04:48;;;;;;;6.20;4.70;;;19.40;99.90;;;;;;4988023;28;20555;-74
2023/09/04 06:07:15;;;;;;;5.30;4.80;;;19.40;99.90;;;;;;4985359;28;20208;-73
2023/09/04 06:09:42;;;;;;;6.20;5.60;;;19.40;99.90;;;;;;4979982;28;20552;-73
2023/09/04 06:12:14;;;;;;;6.33;5.20;;;19.40;99.90;;;;;;4989216;28;20413;-74
2023/09/04 06:14:40;;;;;;;6.10;4.70;;;19.40;99.90;;;;;;4983332;28;20468;-73
2023/09/04 06:17:06;;;;;;;5.57;5.00;;;19.40;99.90;;;;;;4984697;28;20445;-74
2023/09/04 06:19:31;;;;;;;7.00;5.67;;;19.40;99.90;;;;;;4982633;28;20547;-74
2023/09/04 06:21:58;;;;;;;7.53;5.00;;;19.50;99.90;;;;;;4982325;28;20209;-74
2023/09/04 06:24:23;;;;;;;5.63;5.13;;;19.50;99.90;;;;;;4982941;28;20251;-73
2023/09/04 06:26:50;;;;;;;6.20;5.20;;;19.50;99.90;;;;;;4982440;28;20835;-74
2023/09/04 06:29:19;;;;;;;5.67;5.10;;;19.60;99.90;;;;;;4981559;28;20261;-74
2023/09/04 06:31:45;;;;;;;6.00;4.80;;;19.60;99.90;;;;;;4975001;28;20466;-74
2023/09/04 06:34:11;;;;;;;5.87;5.27;;;19.60;99.90;;;;;;4983036;28;20472;-74
2023/09/04 06:36:37;;;;;;;25.13;21.73;;;19.70;99.90;;;;;;4983453;28;20997;-74
2023/09/04 06:39:03;;;;;;;7.50;5.80;;;19.80;99.90;;;;;;4983876;28;20984;-73
2023/09/04 06:41:29;;;;;;;9.70;8.50;;;19.80;99.90;;;;;;4977854;28;20803;-74
2023/09/04 06:43:57;;;;;;;11.83;8.30;;;19.80;99.90;;;;;;4977708;28;20444;-74
2023/09/04 06:46:23;;;;;;;14.90;8.70;;;19.90;99.90;;;;;;4983558;28;20425;-74
2023/09/04 06:48:48;;;;;;;7.87;5.77;;;19.90;99.90;;;;;;4984166;28;20778;-74
2023/09/04 06:51:16;;;;;;;5.80;5.20;;;19.90;99.90;;;;;;4978610;28;20676;-74
2023/09/04 06:53:42;;;;;;;5.80;5.30;;;20.00;99.90;;;;;;4981012;28;20174;-74
2023/09/04 06:56:07;;;;;;;8.40;5.37;;;20.10;99.90;;;;;;4979897;28;20584;-74
2023/09/04 06:58:33;;;;;;;6.00;4.70;;;20.10;99.90;;;;;;4983248;28;20438;-74
2023/09/04 07:01:02;;;;;;;8.40;5.67;;;20.20;99.90;;;;;;4980050;28;20190;-74
2023/09/04 07:03:28;;;;;;;6.07;5.30;;;20.30;99.90;;;;;;4977126;28;20261;-74
2023/09/04 07:05:53;;;;;;;9.47;6.27;;;20.30;99.90;;;;;;4982996;28;20509;-74
2023/09/04 07:08:19;;;;;;;7.93;5.87;;;20.30;99.90;;;;;;5013551;28;20226;-74
2023/09/04 07:10:47;;;;;;;9.30;6.80;;;20.40;99.90;;;;;;5001376;28;20217;-74
2023/09/04 07:13:13;;;;;;;6.20;5.60;;;20.40;99.90;;;;;;4998594;28;20257;-74
2023/09/04 07:15:40;;;;;;;6.10;5.50;;;20.50;99.90;;;;;;4999668;28;20428;-74
2023/09/04 07:18:06;;;;;;;5.90;5.30;;;20.50;99.90;;;;;;5001809;28;20200;-74
2023/09/04 07:20:32;;;;;;;5.43;4.83;;;20.60;99.90;;;;;;5004442;28;20413;-74
2023/09/04 07:22:57;;;;;;;6.20;5.40;;;20.60;99.90;;;;;;5008582;28;20181;-74
2023/09/04 07:25:23;;;;;;;6.13;5.30;;;20.70;99.90;;;;;;5007320;28;20209;-74
2023/09/04 07:27:48;;;;;;;6.53;5.10;;;20.80;99.90;;;;;;5001233;28;20186;-74
2023/09/04 07:30:14;;;;;;;5.37;4.50;;;20.80;99.90;;;;;;5000900;28;20256;-74
2023/09/04 07:32:40;;;;;;;5.30;4.80;;;20.90;99.90;;;;;;4993964;28;20181;-74
2023/09/04 07:35:06;;;;;;;4.90;4.43;;;20.90;99.90;;;;;;4986783;28;20422;-74
2023/09/04 07:37:31;;;;;;;4.90;4.50;;;21.00;99.90;;;;;;4985971;28;20739;-74
2023/09/04 07:39:57;;;;;;;5.70;5.10;;;21.10;99.90;;;;;;4987753;28;20499;-74
2023/09/04 07:42:23;;;;;;;9.83;5.57;;;21.20;99.90;;;;;;4993888;28;20190;-74
2023/09/04 07:44:49;;;;;;;5.10;4.60;;;21.20;99.90;;;;;;4992094;28;20181;-74
2023/09/04 07:47:15;;;;;;;6.63;4.80;;;21.30;99.90;;;;;;4988788;28;20416;-74
2023/09/04 07:49:40;;;;;;;5.10;4.60;;;21.30;99.90;;;;;;4987318;28;20516;-74
2023/09/04 07:52:06;;;;;;;5.90;5.00;;;21.40;99.90;;;;;;4983366;28;20208;-74
2023/09/04 07:54:31;;;;;;;5.77;5.00;;;21.50;99.90;;;;;;4988361;28;20177;-74
2023/09/04 07:56:59;;;;;;;6.70;5.23;;;21.50;99.90;;;;;;4984599;28;20221;-74
2023/09/04 07:59:25;;;;;;;7.07;5.57;;;21.60;99.90;;;;;;4985828;28;20718;-74
2023/09/04 08:01:50;;;;;;;5.13;4.43;;;21.60;99.90;;;;;;4992381;28;20431;-73
2023/09/04 08:04:16;;;;;;;5.37;4.87;;;21.70;99.90;;;;;;4994118;28;20680;-74
2023/09/04 08:06:41;;;;;;;5.37;4.80;;;21.70;99.90;;;;;;4993464;28;20236;-74
2023/09/04 08:09:07;;;;;;;5.17;4.40;;;21.80;99.90;;;;;;4986994;28;20279;-73
2023/09/04 08:11:34;;;;;;;5.13;4.63;;;21.90;99.90;;;;;;4990424;28;20216;-74
2023/09/04 08:13:59;;;;;;;4.60;4.07;;;21.90;99.90;;;;;;4992093;28;20173;-73
2023/09/04 08:16:25;;;;;;;5.43;4.67;;;22.00;99.90;;;;;;4981361;28;20437;-73
2023/09/04 08:18:51;;;;;;;6.43;5.83;;;22.10;99.90;;;;;;4984918;28;20200;-74
2023/09/04 08:21:17;;;;;;;7.77;5.40;;;22.10;99.90;;;;;;4983853;28;20178;-74
2023/09/04 08:23:42;;;;;;;5.77;4.70;;;22.20;99.90;;;;;;4986631;28;20317;-74
2023/09/04 08:26:10;;;;;;;4.87;4.47;;;22.30;99.90;;;;;;4987780;28;20413;-74
2023/09/04 08:28:35;;;;;;;6.10;5.50;;;22.30;99.90;;;;;;4988240;28;20361;-73
2023/09/04 08:31:01;;;;;;;5.73;4.93;;;22.40;99.90;;;;;;4987671;28;20547;-73
2023/09/04 08:33:27;;;;;;;5.63;4.73;;;22.40;99.90;;;;;;4987697;28;20173;-73
2023/09/04 08:35:52;;;;;;;5.30;4.80;;;22.50;99.90;;;;;;4990463;28;20704;-73
2023/09/04 08:38:18;;;;;;;5.30;4.80;;;22.60;99.90;;;;;;4988470;28;20212;-74
2023/09/04 08:40:44;;;;;;;9.30;5.60;;;22.60;99.90;;;;;;4989743;28;20276;-74
2023/09/04 08:43:10;;;;;;;7.93;5.03;;;22.70;99.90;;;;;;4989845;28;20173;-74
2023/09/04 08:45:39;;;;;;;5.07;4.53;;;22.70;99.90;;;;;;4990487;28;20186;-73
2023/09/04 08:48:06;;;;;;;5.93;5.30;;;22.80;99.90;;;;;;4990993;28;21398;-74
2023/09/04 08:50:33;;;;;;;5.90;5.23;;;22.80;99.90;;;;;;4985450;28;20465;-73
2023/09/04 08:52:59;;;;;;;4.90;4.43;;;22.90;99.90;;;;;;4989260;28;20426;-73
2023/09/04 08:55:26;;;;;;;5.30;4.80;;;22.90;99.90;;;;;;4988120;28;20457;-73
2023/09/04 08:57:51;;;;;;;6.97;4.80;;;23.00;99.90;;;;;;4980889;28;20508;-73
2023/09/04 09:00:17;;;;;;;6.00;5.40;;;23.10;99.90;;;;;;4985585;28;21052;-73
2023/09/04 09:02:43;;;;;;;5.20;4.70;;;23.20;99.90;;;;;;4983055;28;20191;-73
2023/09/04 09:05:12;;;;;;;7.37;5.20;;;23.20;99.90;;;;;;4982931;28;20178;-74
2023/09/04 09:07:40;;;;;;;6.20;4.77;;;23.30;99.90;;;;;;4983299;28;20433;-73
2023/09/04 09:10:08;;;;;;;4.67;4.20;;;23.40;99.90;;;;;;4981444;28;20461;-73
2023/09/04 09:12:34;;;;;;;4.80;4.40;;;23.40;99.90;;;;;;4979345;28;20425;-73
2023/09/04 09:15:00;;;;;;;5.03;4.63;;;23.50;99.90;;;;;;4981302;28;20432;-73
2023/09/04 09:17:26;;;;;;;7.83;5.67;;;23.50;99.90;;;;;;4985050;28;20210;-74
2023/09/04 09:19:52;;;;;;;6.30;5.17;;;23.50;99.90;;;;;;4980685;28;20432;-74
2023/09/04 09:22:21;;;;;;;9.63;5.27;;;23.60;99.90;;;;;;4984356;28;20429;-74
2023/09/04 09:25:00;;;;;;;10.20;5.60;;;23.70;99.90;;;;;;4983397;28;20268;-74
2023/09/04 09:27:31;;;;;;;6.07;4.90;;;23.70;99.90;;;;;;4984169;28;20483;-74
2023/09/04 09:29:58;;;;;;;5.50;5.00;;;23.80;99.90;;;;;;4983375;28;20475;-74
2023/09/04 09:32:27;;;;;;;5.27;4.77;;;23.80;99.90;;;;;;4983238;28;20452;-74
2023/09/04 09:34:54;;;;;;;5.87;5.20;;;23.90;99.90;;;;;;4983306;28;20433;-74
2023/09/04 09:37:21;;;;;;;5.17;4.67;;;24.00;99.90;;;;;;4981362;28;20988;-74
2023/09/04 09:39:47;;;;;;;5.77;5.17;;;24.10;99.90;;;;;;4986784;28;20946;-74
2023/09/04 09:42:13;;;;;;;9.47;5.03;;;24.10;99.90;;;;;;4986263;28;20439;-74
2023/09/04 09:44:39;;;;;;;5.60;4.53;;;24.20;99.90;;;;;;4987643;28;20185;-74
2023/09/04 09:47:10;;;;;;;6.60;5.43;;;24.20;99.90;;;;;;4992140;28;20178;-74
2023/09/04 09:49:36;;;;;;;7.80;5.80;;;24.40;99.90;;;;;;4980708;28;20182;-74
2023/09/04 09:52:06;;;;;;;5.70;4.60;;;24.40;99.90;;;;;;4983960;28;20460;-74
2023/09/04 09:54:35;;;;;;;11.43;4.67;;;24.50;99.90;;;;;;4984097;28;20476;-74
2023/09/04 09:57:01;;;;;;;8.20;5.07;;;24.50;99.90;;;;;;4987678;28;20815;-74
2023/09/04 09:59:29;;;;;;;7.53;4.47;;;24.60;99.90;;;;;;4982411;28;20429;-74
2023/09/04 10:01:56;;;;;;;5.43;4.87;;;24.70;99.90;;;;;;4989312;28;20424;-74
2023/09/04 10:04:24;;;;;;;5.00;4.50;;;24.80;99.90;;;;;;4982764;28;20431;-74
2023/09/04 10:06:52;;;;;;;4.93;4.43;;;24.80;99.90;;;;;;4986572;28;20429;-73
2023/09/04 10:09:22;;;;;;;4.93;4.40;;;24.90;99.90;;;;;;4980906;28;20500;-73
2023/09/04 10:12:18;;;;;;;5.10;4.60;;;24.90;99.90;;;;;;4982919;28;20890;-74
2023/09/04 10:14:45;;;;;;;5.30;4.13;;;25.00;99.90;;;;;;4974428;28;20433;-74
2023/09/04 10:17:23;;;;;;;5.00;4.37;;;25.10;99.90;;;;;;4986296;28;20467;-74
2023/09/04 10:19:53;;;;;;;6.10;4.97;;;25.20;99.90;;;;;;4979671;28;20793;-74
2023/09/04 10:22:30;;;;;;;4.50;4.10;;;25.20;99.90;;;;;;4981747;28;20447;-74
2023/09/04 10:25:04;;;;;;;7.10;6.40;;;25.20;99.90;;;;;;4990543;28;20585;-74
2023/09/04 10:27:33;;;;;;;5.33;4.83;;;25.30;99.90;;;;;;4984031;28;20436;-74
2023/09/04 10:30:06;;;;;;;5.27;4.60;;;25.40;99.90;;;;;;4984825;28;20469;-74
2023/09/04 10:32:34;;;;;;;8.73;4.73;;;25.40;99.90;;;;;;4979692;28;20444;-74
2023/09/04 10:35:01;;;;;;;4.70;4.30;;;25.50;99.90;;;;;;4986607;28;20416;-74
2023/09/04 10:37:30;;;;;;;5.20;4.70;;;25.50;99.90;;;;;;4983329;28;20840;-74
2023/09/04 10:39:58;;;;;;;5.00;4.50;;;25.60;99.90;;;;;;4984321;28;20850;-74
2023/09/04 10:42:27;;;;;;;4.90;4.20;;;25.60;99.90;;;;;;4980355;28;20473;-74
2023/09/04 10:44:53;;;;;;;6.43;4.67;;;25.60;99.90;;;;;;4984939;28;20425;-74
2023/09/04 10:47:22;;;;;;;4.70;4.30;;;25.70;99.90;;;;;;4981248;28;20515;-74
2023/09/04 10:49:49;;;;;;;4.70;4.30;;;25.70;99.90;;;;;;4980622;28;20426;-73
2023/09/04 10:52:15;;;;;;;5.43;4.93;;;25.80;99.90;;;;;;4982015;28;20507;-74
2023/09/04 10:54:41;;;;;;;4.73;4.33;;;25.90;99.90;;;;;;4974879;28;20799;-74
2023/09/04 10:57:12;;;;;;;6.00;5.33;;;25.90;99.90;;;;;;4984433;28;20185;-73
2023/09/04 10:59:53;;;;;;;4.40;4.00;;;26.00;99.90;;;;;;4973132;28;20446;-74
2023/09/04 11:02:33;;;;;;;6.03;4.17;;;26.00;99.90;;;;;;4982389;28;20421;-74
2023/09/04 11:05:00;;;;;;;4.87;4.37;;;26.10;99.90;;;;;;4983162;28;20497;-74
2023/09/04 11:07:32;;;;;;;5.40;4.90;;;26.20;99.90;;;;;;4974755;28;20420;-74
2023/09/04 11:10:06;;;;;;;5.47;4.50;;;26.20;99.90;;;;;;4983390;28;20540;-74
2023/09/04 11:12:37;;;;;;;6.53;5.17;;;26.30;99.90;;;;;;4979715;28;20429;-74
2023/09/04 11:15:13;;;;;;;4.97;4.47;;;26.30;99.90;;;;;;4984213;28;20409;-74
2023/09/04 11:17:43;;;;;;;4.30;3.90;;;26.40;99.90;;;;;;4978585;28;20472;-74
2023/09/04 11:20:10;;;;;;;4.70;4.30;;;26.50;99.90;;;;;;4983116;28;20417;-75
2023/09/04 11:22:35;;;;;;;5.30;3.87;;;26.60;99.90;;;;;;4985231;28;20471;-74
2023/09/04 11:25:01;;;;;;;4.77;4.37;;;26.60;99.90;;;;;;4983386;28;20527;-74
2023/09/04 11:27:27;;;;;;;6.73;5.17;;;26.70;99.90;;;;;;4984024;28;20643;-73
2023/09/04 11:29:53;;;;;;;4.63;4.23;;;26.70;99.90;;;;;;4981597;28;20296;-74
2023/09/04 11:32:19;;;;;;;4.73;4.30;;;26.80;99.90;;;;;;4978526;28;20479;-74
2023/09/04 11:34:48;;;;;;;5.70;4.40;;;27.00;99.90;;;;;;4984505;28;20409;-74
2023/09/04 11:37:14;;;;;;;6.63;4.50;;;27.00;99.90;;;;;;4978194;28;20445;-74
2023/09/04 11:39:55;;;;;;;4.20;3.80;;;27.10;99.90;;;;;;4985805;28;20425;-74
2023/09/04 11:42:22;;;;;;;4.60;4.10;;;27.10;99.90;;;;;;4981414;28;20169;-74
2023/09/04 11:44:49;;;;;;;6.70;4.03;;;27.30;99.90;;;;;;4981233;28;20471;-74
2023/09/04 11:47:16;;;;;;;4.73;3.90;;;27.40;99.80;;;;;;4982578;28;20409;-74
2023/09/04 11:49:42;;;;;;;16.77;8.20;;;27.50;99.70;;;;;;4980401;28;21467;-75
2023/09/04 11:52:10;;;;;;;10.97;7.13;;;27.70;99.40;;;;;;4980460;28;20413;-75
2023/09/04 11:54:36;;;;;;;7.53;5.33;;;27.70;98.80;;;;;;4982706;28;20186;-74
2023/09/04 11:57:05;;;;;;;6.23;5.73;;;27.90;98.10;;;;;;4983833;28;20424;-74
2023/09/04 11:59:37;;;;;;;5.80;5.30;;;28.10;97.30;;;;;;4994737;28;20435;-74
2023/09/04 12:02:04;;;;;;;22.30;8.67;;;28.20;96.70;;;;;;4999970;28;20422;-74
2023/09/04 12:04:32;;;;;;;7.70;6.90;;;28.50;97.10;;;;;;5003434;28;20397;-74
2023/09/04 12:07:08;;;;;;;6.17;5.60;;;28.90;95.80;;;;;;5003627;28;20459;-73
2023/09/04 12:09:37;;;;;;;7.17;6.47;;;29.40;95.20;;;;;;5004306;28;20396;-73
2023/09/04 12:12:04;;;;;;;7.80;7.03;;;29.80;93.10;;;;;;5005960;28;20496;-73
2023/09/04 12:14:30;;;;;;;5.73;5.13;;;30.10;93.10;;;;;;4999052;28;20425;-74
2023/09/04 12:16:56;;;;;;;4.70;4.27;;;30.40;91.30;;;;;;4989867;28;20924;-73
2023/09/04 12:19:25;;;;;;;8.37;6.00;;;30.60;89.10;;;;;;4987813;28;20437;-73
2023/09/04 12:21:52;;;;;;;4.97;4.53;;;30.90;87.30;;;;;;4984832;28;20216;-73
2023/09/04 12:24:18;;;;;;;5.10;4.70;;;31.20;86.20;;;;;;4985006;28;20449;-73
2023/09/04 12:26:48;;;;;;;5.10;4.63;;;31.50;85.00;;;;;;4988662;28;20444;-74
2023/09/04 12:29:13;;;;;;;5.33;4.80;;;31.70;82.30;;;;;;4984431;28;20448;-74
2023/09/04 12:31:42;;;;;;;5.20;4.70;;;31.90;79.70;;;;;;4989262;28;20484;-74
2023/09/04 12:34:08;;;;;;;7.27;4.40;;;32.10;78.70;;;;;;4984493;28;20685;-74
2023/09/04 12:36:34;;;;;;;5.43;4.30;;;32.20;77.40;;;;;;4986187;28;20411;-74
2023/09/04 12:39:00;;;;;;;4.60;4.20;;;32.40;74.40;;;;;;4987993;28;20628;-74
2023/09/04 12:41:27;;;;;;;4.60;4.20;;;32.60;71.70;;;;;;4989514;28;20444;-74
2023/09/04 12:43:52;;;;;;;5.43;4.90;;;32.70;69.90;;;;;;4985876;28;20874;-74